Time;durP1;ratioP1;P1;durP2;ratioP2;P2;SDS_P1;SDS_P2;PMS_P1;PMS_P2;Temp;Humidity;BMP_temperature;BMP_pressure;BME280_temperature;BME280_humidity;BME280_pressure;Samples;Min_cycle;Max_cycle;Signal;HPM_P1;HPM_P2
2021/12/09 00:01:23;;;;;;;;;6.00;1.00;;;;;11.60;85.51;100056.41;5077996;28;46643;-85
2021/12/09 00:03:57;;;;;;;;;1.00;1.00;;;;;11.59;85.69;100060.84;5079107;28;45792;-86
2021/12/09 00:06:27;;;;;;;;;3.25;1.00;;;;;11.57;85.74;100046.06;5079313;27;45532;-85
2021/12/09 00:08:54;;;;;;;;;1.00;1.00;;;;;11.57;85.90;100048.72;5079353;27;45309;-85
2021/12/09 00:11:20;;;;;;;;;1.00;0.00;;;;;11.54;85.83;100043.69;5086884;27;45474;-85
2021/12/09 00:13:46;;;;;;;;;2.25;1.00;;;;;11.63;85.53;100050.88;5076895;27;45514;-85
2021/12/09 00:16:11;;;;;;;;;1.75;1.25;;;;;11.57;85.34;100049.56;5079992;28;45380;-85
2021/12/09 00:18:37;;;;;;;;;5.00;1.00;;;;;11.60;85.47;100053.75;5062453;28;45920;-85
2021/12/09 00:21:02;;;;;;;;;2.00;0.50;;;;;11.55;85.65;100051.50;5074611;27;45612;-86
2021/12/09 00:23:28;;;;;;;;;2.75;1.00;;;;;11.62;85.31;100054.47;5078584;28;45397;-85
2021/12/09 00:25:54;;;;;;;;;1.00;0.00;;;;;11.52;85.72;100064.97;5061832;28;45683;-84
2021/12/09 00:28:19;;;;;;;;;2.00;0.00;;;;;11.45;86.14;100057.66;5064105;28;45457;-85
2021/12/09 00:30:45;;;;;;;;;1.00;0.00;;;;;11.43;86.13;100055.16;5062922;28;48139;-85
2021/12/09 00:33:11;;;;;;;;;1.75;1.75;;;;;11.47;85.92;100047.81;5081027;28;45519;-85
2021/12/09 00:35:50;;;;;;;;;0.00;0.00;;;;;11.60;86.27;100056.41;5080500;28;45459;-87
2021/12/09 00:38:33;;;;;;;;;3.00;1.00;;;;;11.44;86.02;100051.53;5064943;28;45533;-85
2021/12/09 00:41:00;;;;;;;;;4.75;0.25;;;;;11.42;86.53;100044.69;5079197;28;45681;-84
2021/12/09 00:43:29;;;;;;;;;0.50;0.50;;;;;11.41;86.87;100043.84;5078476;27;45258;-86
2021/12/09 00:45:57;;;;;;;;;0.75;0.00;;;;;11.42;87.36;100057.91;5081099;28;45514;-86
2021/12/09 00:48:22;;;;;;;;;2.00;0.25;;;;;11.53;87.52;100071.94;5080848;27;45370;-83
2021/12/09 00:50:48;;;;;;;;;0.75;0.75;;;;;11.53;87.36;100060.53;5079378;27;45542;-85
2021/12/09 00:53:13;;;;;;;;;1.00;1.00;;;;;11.53;87.83;100073.75;5080425;27;45378;-84
2021/12/09 00:55:38;;;;;;;;;0.00;0.00;;;;;11.52;87.82;100072.06;5078393;28;45517;-84
2021/12/09 00:58:04;;;;;;;;;0.50;0.50;;;;;11.51;87.92;100075.66;5080993;27;45437;-84
2021/12/09 01:00:31;;;;;;;;;4.75;1.00;;;;;11.57;87.25;100070.69;5081422;28;45834;-84
2021/12/09 01:02:58;;;;;;;;;2.00;0.00;;;;;11.63;86.97;100083.44;5078709;27;45595;-84
2021/12/09 01:05:25;;;;;;;;;5.75;1.00;;;;;11.74;87.10;100079.91;5073022;28;45216;-84
2021/12/09 01:07:51;;;;;;;;;0.75;0.00;;;;;11.72;86.69;100067.78;5080652;28;45356;-84
2021/12/09 01:10:17;;;;;;;;;1.00;1.00;;;;;11.86;86.21;100070.13;5062740;28;47498;-84
2021/12/09 01:12:44;;;;;;;;;2.00;1.00;;;;;11.90;85.96;100074.22;5079306;28;45206;-84
2021/12/09 01:15:13;;;;;;;;;2.00;0.00;;;;;11.90;85.65;100072.41;5081517;28;45390;-84
2021/12/09 01:17:39;;;;;;;;;0.75;0.00;;;;;11.89;85.61;100069.88;5062546;28;45451;-84
2021/12/09 01:20:08;;;;;;;;;1.00;0.00;;;;;11.91;85.33;100067.97;5079569;28;48025;-84
2021/12/09 01:22:41;;;;;;;;;1.00;0.00;;;;;11.83;85.29;100068.59;5062450;28;46048;-84
2021/12/09 01:25:10;;;;;;;;;3.25;0.00;;;;;11.97;85.42;100072.72;5073230;28;45293;-84
2021/12/09 01:27:38;;;;;;;;;3.75;1.00;;;;;11.98;84.87;100088.47;5080704;28;45275;-84
2021/12/09 01:30:10;;;;;;;;;2.00;0.00;;;;;12.05;84.91;100091.44;5080407;28;46184;-84
2021/12/09 01:32:36;;;;;;;;;0.25;0.25;;;;;12.01;84.58;100092.69;5075927;28;45727;-83
2021/12/09 01:35:01;;;;;;;;;3.75;2.00;;;;;11.98;84.70;100082.34;5073791;28;45363;-85
2021/12/09 01:37:27;;;;;;;;;5.50;0.50;;;;;12.01;84.24;100097.97;5068444;28;45481;-82
2021/12/09 01:39:52;;;;;;;;;1.00;0.50;;;;;11.98;84.28;100085.84;5062181;28;46089;-83
2021/12/09 01:42:18;;;;;;;;;0.00;0.00;;;;;11.97;84.09;100097.38;5080447;28;45279;-83
2021/12/09 01:44:43;;;;;;;;;3.75;1.00;;;;;11.95;83.96;100088.72;5079805;28;45464;-83
2021/12/09 01:47:09;;;;;;;;;1.00;0.00;;;;;11.99;83.80;100092.81;5063882;28;45262;-83
2021/12/09 01:49:35;;;;;;;;;2.75;0.00;;;;;12.05;83.55;100093.25;5079526;27;45424;-83
2021/12/09 01:52:00;;;;;;;;;0.00;0.00;;;;;12.08;83.94;100101.78;5080567;28;45202;-83
2021/12/09 01:54:26;;;;;;;;;0.00;0.00;;;;;12.05;83.21;100103.84;5079543;28;45231;-83
2021/12/09 01:56:52;;;;;;;;;0.50;0.00;;;;;12.03;83.35;100122.47;5081936;27;45601;-83
2021/12/09 01:59:17;;;;;;;;;0.00;0.00;;;;;11.98;83.42;100106.16;5076455;27;46145;-83
2021/12/09 02:01:43;;;;;;;;;1.00;1.00;;;;;11.89;83.61;100112.22;5079796;28;45828;-83
2021/12/09 02:04:10;;;;;;;;;2.00;1.00;;;;;11.98;83.68;100120.22;5079827;27;45478;-83
2021/12/09 02:06:40;;;;;;;;;2.00;1.00;;;;;11.97;83.41;100123.84;5079427;27;45367;-83
2021/12/09 02:09:10;;;;;;;;;2.75;0.00;;;;;11.87;83.13;100109.69;5078874;27;45558;-83
2021/12/09 02:11:35;;;;;;;;;5.25;0.00;;;;;11.90;83.00;100122.69;5088365;27;45768;-83
2021/12/09 02:14:03;;;;;;;;;1.00;0.00;;;;;11.79;83.48;100114.78;5077689;27;45430;-84
2021/12/09 02:16:29;;;;;;;;;0.00;0.00;;;;;11.72;83.76;100108.28;5066985;28;45410;-83
2021/12/09 02:18:54;;;;;;;;;2.00;1.00;;;;;11.73;84.19;100120.56;5077746;28;45411;-83
2021/12/09 02:21:25;;;;;;;;;2.25;0.00;;;;;11.85;84.38;100116.91;5073131;27;45220;-83
2021/12/09 02:24:00;;;;;;;;;2.00;0.00;;;;;11.87;84.53;100103.56;5083158;28;45501;-84
2021/12/09 02:26:29;;;;;;;;;0.00;0.00;;;;;11.97;84.45;100115.91;5083150;28;45383;-83
2021/12/09 02:28:55;;;;;;;;;0.50;0.50;;;;;11.86;84.12;100102.72;5082776;28;45294;-83
2021/12/09 02:31:23;;;;;;;;;3.25;0.00;;;;;11.95;84.32;100109.06;5082830;28;45650;-83
2021/12/09 02:33:48;;;;;;;;;0.75;0.00;;;;;11.87;83.62;100114.97;5088979;27;45822;-83
2021/12/09 02:36:15;;;;;;;;;0.50;0.00;;;;;11.82;84.05;100111.91;5082725;27;45528;-83
2021/12/09 02:38:44;;;;;;;;;1.00;0.00;;;;;11.74;84.24;100105.53;5086728;28;46732;-83
2021/12/09 02:41:21;;;;;;;;;1.75;0.75;;;;;11.90;84.30;100117.38;5075405;28;45569;-83
2021/12/09 02:43:54;;;;;;;;;1.00;0.75;;;;;11.89;84.30;100114.88;5070608;28;45260;-84
2021/12/09 02:46:22;;;;;;;;;2.00;0.00;;;;;11.83;84.62;100116.22;5083551;28;45219;-84
2021/12/09 02:48:48;;;;;;;;;3.25;0.00;;;;;11.72;84.30;100121.53;5082874;28;45429;-83
2021/12/09 02:51:14;;;;;;;;;1.00;0.50;;;;;11.74;84.86;100116.94;5082996;27;45441;-83
2021/12/09 02:53:40;;;;;;;;;2.00;0.00;;;;;11.71;84.68;100111.91;5083636;28;45322;-84
2021/12/09 02:56:06;;;;;;;;;2.00;0.00;;;;;11.81;84.56;100112.00;5076680;28;45424;-84
2021/12/09 02:58:32;;;;;;;;;2.00;0.00;;;;;11.77;84.15;100118.50;5082790;28;45515;-83
2021/12/09 03:00:57;;;;;;;;;2.00;0.50;;;;;11.69;84.33;100121.75;5080981;28;45513;-83
2021/12/09 03:03:23;;;;;;;;;0.00;0.00;;;;;11.61;84.90;100134.78;5082307;27;45361;-83
2021/12/09 03:05:54;;;;;;;;;1.50;1.00;;;;;11.70;84.79;100128.72;5082737;28;45722;-83
2021/12/09 03:08:24;;;;;;;;;1.00;1.00;;;;;11.56;85.01;100124.56;5083160;28;45962;-84
2021/12/09 03:10:50;;;;;;;;;0.00;0.00;;;;;11.58;85.07;100133.22;5080159;28;45349;-83
2021/12/09 03:13:17;;;;;;;;;0.00;0.00;;;;;11.47;85.42;100127.13;5086724;27;45393;-83
2021/12/09 03:15:42;;;;;;;;;0.00;0.00;;;;;11.52;85.87;100138.16;5076763;28;45594;-83
2021/12/09 03:18:08;;;;;;;;;0.00;0.00;;;;;11.43;85.86;100129.16;5081963;28;46430;-83
2021/12/09 03:20:34;;;;;;;;;0.00;0.00;;;;;11.45;85.83;100132.53;5078590;28;45437;-84
2021/12/09 03:22:59;;;;;;;;;0.00;0.00;;;;;11.54;86.01;100133.59;5083078;28;45508;-84
2021/12/09 03:25:24;;;;;;;;;2.00;0.50;;;;;11.52;85.95;100131.06;5081390;28;45525;-83
2021/12/09 03:27:50;;;;;;;;;0.00;0.00;;;;;11.45;85.99;100121.97;5082513;27;45464;-83
2021/12/09 03:30:19;;;;;;;;;0.50;0.50;;;;;11.49;86.30;100120.72;5082182;28;45360;-83
2021/12/09 03:32:45;;;;;;;;;7.25;1.00;;;;;11.50;86.59;100130.34;5073199;28;45356;-83
2021/12/09 03:35:12;;;;;;;;;1.25;0.00;;;;;11.56;86.85;100139.59;5079240;28;45218;-83
2021/12/09 03:37:40;;;;;;;;;2.00;1.00;;;;;11.55;86.98;100137.94;5065051;28;47056;-84
2021/12/09 03:40:07;;;;;;;;;4.00;0.00;;;;;11.56;87.36;100139.59;5081092;28;45565;-83
2021/12/09 03:42:34;;;;;;;;;0.75;0.75;;;;;11.60;86.88;100141.03;5082129;28;45387;-84
2021/12/09 03:45:00;;;;;;;;;0.00;0.00;;;;;11.63;86.86;100148.72;5065224;28;45633;-83
2021/12/09 03:47:28;;;;;;;;;1.50;0.25;;;;;11.59;86.84;100139.34;5082096;28;46094;-83
2021/12/09 03:49:54;;;;;;;;;0.50;0.00;;;;;11.64;87.02;100147.75;5081794;28;45613;-83
2021/12/09 03:52:19;;;;;;;;;1.50;0.00;;;;;11.59;86.71;100136.69;5082603;28;45428;-84
2021/12/09 03:54:45;;;;;;;;;2.00;0.75;;;;;11.61;87.02;100148.84;5082126;28;45447;-83
2021/12/09 03:57:12;;;;;;;;;1.00;0.00;;;;;11.64;86.99;100142.47;5082004;28;45465;-84
2021/12/09 03:59:39;;;;;;;;;2.25;1.00;;;;;11.66;86.55;100148.44;5065767;27;45477;-83
2021/12/09 04:02:05;;;;;;;;;0.75;0.00;;;;;11.61;86.61;100148.00;5061355;28;45249;-83
2021/12/09 04:04:30;;;;;;;;;0.50;0.00;;;;;11.59;86.67;100147.28;5049494;28;46104;-83
2021/12/09 04:06:57;;;;;;;;;0.00;0.00;;;;;11.62;86.84;100149.69;5060266;28;46510;-83
2021/12/09 04:09:23;;;;;;;;;1.00;1.00;;;;;11.63;86.75;100167.22;5038325;28;45211;-84
2021/12/09 04:11:49;;;;;;;;;1.50;0.00;;;;;11.67;86.69;100166.00;5050968;28;45321;-83
2021/12/09 04:14:15;;;;;;;;;1.75;0.00;;;;;11.65;86.62;100167.09;5041344;28;47348;-84
2021/12/09 04:16:42;;;;;;;;;2.00;0.50;;;;;11.58;86.94;100164.09;5061551;28;45434;-83
2021/12/09 04:19:09;;;;;;;;;3.25;1.25;;;;;11.63;86.70;100161.94;5064812;28;45265;-83
2021/12/09 04:21:35;;;;;;;;;4.25;1.25;;;;;11.69;86.45;100169.38;5056781;28;45153;-83
2021/12/09 04:24:07;;;;;;;;;0.00;0.00;;;;;11.63;86.48;100167.22;5061352;28;45244;-83
2021/12/09 04:26:33;;;;;;;;;1.00;1.00;;;;;11.60;86.50;100165.66;5060404;28;45441;-83
2021/12/09 04:28:59;;;;;;;;;0.50;0.50;;;;;11.65;86.11;100164.47;5060963;28;45529;-83
2021/12/09 04:31:25;;;;;;;;;1.50;1.00;;;;;11.57;86.31;100154.47;5046415;28;45701;-83
2021/12/09 04:33:51;;;;;;;;;2.75;0.25;;;;;11.60;86.52;100164.81;5041935;28;45271;-83
2021/12/09 04:36:18;;;;;;;;;0.50;0.50;;;;;11.68;86.13;100154.47;5051721;28;47296;-83
2021/12/09 04:38:45;;;;;;;;;2.75;0.00;;;;;11.66;85.96;100156.38;5061309;28;45416;-83
2021/12/09 04:41:10;;;;;;;;;1.00;1.00;;;;;11.59;85.88;100165.78;5040439;28;45427;-83
2021/12/09 04:43:40;;;;;;;;;1.25;1.00;;;;;11.62;86.75;100160.25;5045449;28;45494;-83
2021/12/09 04:46:05;;;;;;;;;1.50;0.50;;;;;11.68;86.47;100157.09;5037693;28;47318;-83
2021/12/09 04:48:30;;;;;;;;;2.00;0.50;;;;;11.68;86.39;100165.03;5060986;28;45138;-83
2021/12/09 04:50:56;;;;;;;;;1.25;1.00;;;;;11.88;85.29;100168.75;5045814;28;45590;-83
2021/12/09 04:53:22;;;;;;;;;0.00;0.00;;;;;11.89;85.32;100167.78;5063445;28;45621;-83
2021/12/09 04:55:47;;;;;;;;;1.50;1.00;;;;;11.83;85.09;100171.78;5062580;28;45891;-83
2021/12/09 04:58:13;;;;;;;;;1.00;1.00;;;;;11.77;85.36;100174.06;5063597;27;45344;-83
2021/12/09 05:00:38;;;;;;;;;2.00;0.25;;;;;11.64;85.61;100171.56;5080620;28;45523;-83
2021/12/09 05:03:09;;;;;;;;;4.50;1.25;;;;;11.39;86.71;100171.81;5079601;28;46798;-83
2021/12/09 05:05:38;;;;;;;;;1.00;0.25;;;;;11.56;86.49;100164.22;5063890;28;48007;-83
2021/12/09 05:08:10;;;;;;;;;1.50;0.00;;;;;11.59;86.59;100166.63;5080728;28;45843;-83
2021/12/09 05:10:53;;;;;;;;;1.00;1.00;;;;;11.57;87.07;100167.69;5087365;27;45314;-83
2021/12/09 05:13:19;;;;;;;;;1.75;1.00;;;;;11.39;87.52;100174.47;5083139;27;45274;-83
2021/12/09 05:15:46;;;;;;;;;0.25;0.25;;;;;11.47;87.35;100170.25;5080010;28;46345;-83
2021/12/09 05:18:12;;;;;;;;;1.75;0.25;;;;;11.39;87.52;100174.47;5082846;27;45614;-83
2021/12/09 05:20:38;;;;;;;;;0.75;0.75;;;;;11.44;87.58;100167.03;5056750;28;45375;-83
2021/12/09 05:23:04;;;;;;;;;1.00;1.00;;;;;11.39;87.70;100172.66;5073958;28;45342;-83
2021/12/09 05:25:30;;;;;;;;;0.00;0.00;;;;;11.37;88.19;100171.97;5080690;27;45468;-83
2021/12/09 05:27:55;;;;;;;;;0.75;0.75;;;;;11.31;88.32;100163.66;5080731;28;45398;-83
2021/12/09 05:30:24;;;;;;;;;0.00;0.00;;;;;11.47;87.93;100180.00;5079192;28;45782;-83
2021/12/09 05:32:51;;;;;;;;;2.50;1.00;;;;;11.39;88.30;100180.59;5067181;28;45508;-84
2021/12/09 05:35:18;;;;;;;;;0.00;0.00;;;;;11.39;88.36;100169.19;5080318;28;46347;-83
2021/12/09 05:37:44;;;;;;;;;1.00;1.00;;;;;11.43;88.51;100173.28;5079698;27;45825;-83
2021/12/09 05:40:12;;;;;;;;;5.50;1.00;;;;;11.45;88.19;100169.56;5080187;28;45315;-83
2021/12/09 05:42:38;;;;;;;;;2.00;0.75;;;;;11.45;87.78;100174.84;5074515;27;45842;-84
2021/12/09 05:45:04;;;;;;;;;1.50;1.50;;;;;11.48;87.89;100179.03;5059862;28;46148;-84
2021/12/09 05:47:31;;;;;;;;;0.50;0.50;;;;;11.49;87.71;100181.53;5059044;28;45687;-83
2021/12/09 05:49:56;;;;;;;;;0.25;0.25;;;;;11.62;87.19;100182.25;5077165;28;45475;-84
2021/12/09 05:52:22;;;;;;;;;1.25;1.25;;;;;11.59;87.41;100182.50;5079124;27;45624;-84
2021/12/09 05:54:47;;;;;;;;;0.75;0.75;;;;;11.46;87.62;100197.69;5060022;28;46007;-85
2021/12/09 05:57:13;;;;;;;;;2.00;1.00;;;;;11.22;88.43;100195.16;5076251;28;45399;-85
2021/12/09 05:59:41;;;;;;;;;1.00;1.00;;;;;11.21;89.23;100198.75;5057981;28;45612;-85
2021/12/09 06:02:16;;;;;;;;;2.00;1.25;;;;;11.78;87.18;100195.09;5058229;28;45444;-84
2021/12/09 06:04:43;;;;;;;;;2.00;1.00;;;;;11.79;86.49;100193.28;5045068;28;46386;-84
2021/12/09 06:07:10;;;;;;;;;2.50;0.50;;;;;12.02;85.51;100202.03;5057938;28;45745;-85
2021/12/09 06:09:36;;;;;;;;;4.75;1.00;;;;;11.95;84.40;100202.50;5053130;28;45577;-84
2021/12/09 06:12:02;;;;;;;;;3.00;2.00;;;;;12.13;84.37;100209.88;5060588;28;45613;-84
2021/12/09 06:14:28;;;;;;;;;1.00;1.00;;;;;12.19;83.98;100206.75;5059083;28;46117;-84
2021/12/09 06:16:53;;;;;;;;;3.75;2.00;;;;;11.86;85.04;100202.41;5058051;28;45447;-86
2021/12/09 06:19:21;;;;;;;;;4.75;1.00;;;;;12.06;84.22;100195.50;5055131;28;45348;-85
2021/12/09 06:21:47;;;;;;;;;3.25;2.00;;;;;12.03;84.07;100207.16;5040200;28;45454;-87
2021/12/09 06:25:06;;;;;;;;;1.75;1.75;;;;;11.93;84.55;100207.06;5040018;28;46150;-90
2021/12/09 06:27:31;;;;;;;;;4.00;1.00;;;;;11.99;83.97;100205.75;4997842;28;45511;-85
2021/12/09 06:29:57;;;;;;;;;6.00;2.00;;;;;11.96;84.03;100206.84;5059286;28;45505;-84
2021/12/09 06:32:22;;;;;;;;;5.75;2.25;;;;;11.77;84.59;100214.56;5059501;28;45213;-85
2021/12/09 06:34:48;;;;;;;;;2.00;2.00;;;;;11.81;85.22;100212.53;5045848;28;47468;-84
2021/12/09 06:37:13;;;;;;;;;3.50;2.00;;;;;11.77;84.94;100211.09;5061906;28;45404;-86
2021/12/09 06:39:39;;;;;;;;;2.75;2.00;;;;;11.72;85.29;100216.72;5041603;28;45292;-87
2021/12/09 06:42:05;;;;;;;;;8.00;1.50;;;;;11.64;85.63;100216.50;5044595;28;45537;-81
2021/12/09 06:44:31;;;;;;;;;5.00;1.00;;;;;11.63;86.03;100220.13;5057533;28;46188;-82
2021/12/09 06:46:57;;;;;;;;;5.00;2.00;;;;;11.85;84.70;100217.44;5043661;28;45347;-84
2021/12/09 06:49:23;;;;;;;;;4.50;3.00;;;;;11.88;84.32;100222.50;5058539;28;45502;-84
2021/12/09 06:51:49;;;;;;;;;2.25;2.25;;;;;11.60;85.82;100221.19;5058503;28;45365;-84
2021/12/09 06:54:15;;;;;;;;;3.25;2.50;;;;;11.79;84.89;100230.31;5035736;28;46706;-84
2021/12/09 06:56:41;;;;;;;;;3.50;2.00;;;;;11.84;84.74;100231.63;5058931;28;45209;-84
2021/12/09 06:59:06;;;;;;;;;7.25;3.25;;;;;11.78;85.12;100241.88;5059187;28;45289;-84
2021/12/09 07:01:32;;;;;;;;;2.25;2.25;;;;;11.73;84.99;100236.94;5060494;28;45183;-84
2021/12/09 07:03:57;;;;;;;;;6.00;2.00;;;;;11.84;84.75;100242.22;5079208;28;46686;-84
2021/12/09 07:06:23;;;;;;;;;5.75;2.00;;;;;11.78;85.39;100245.34;5079186;28;45203;-84
2021/12/09 07:08:53;;;;;;;;;2.00;2.00;;;;;11.76;85.21;100255.22;5083940;28;45664;-85
2021/12/09 07:11:20;;;;;;;;;9.75;4.75;;;;;11.66;85.88;100245.47;5083767;28;45501;-83
2021/12/09 07:14:10;;;;;;;;;;;;;;;;;;;;;
2021/12/09 07:16:48;;;;;;;;;4.75;2.00;;;;;11.82;84.89;100230.94;5081676;28;72962;-85
2021/12/09 07:19:18;;;;;;;;;7.50;3.50;;;;;11.61;85.84;100246.69;5074289;28;45574;-85
2021/12/09 07:21:43;;;;;;;;;10.50;4.00;;;;;11.39;85.99;100232.63;5072941;28;45501;-85
2021/12/09 07:24:09;;;;;;;;;8.50;5.00;;;;;11.49;86.46;100241.50;5082617;28;45555;-85
2021/12/09 07:26:34;;;;;;;;;2.25;2.00;;;;;11.44;86.56;100233.97;5082762;28;45405;-85
2021/12/09 07:29:02;;;;;;;;;6.75;4.00;;;;;11.07;87.24;100256.31;5083179;28;45355;-85
2021/12/09 07:31:30;;;;;;;;;5.00;4.00;;;;;11.30;86.30;100250.06;5083162;28;45536;-85
2021/12/09 07:34:05;;;;;;;;;3.50;1.50;;;;;11.15;87.82;100236.25;5064689;28;47115;-85
2021/12/09 07:36:30;;;;;;;;;6.75;2.00;;;;;11.28;88.11;100254.66;5069965;28;45717;-85
2021/12/09 07:38:56;;;;;;;;;6.00;4.25;;;;;10.94;89.58;100235.25;5083389;28;45177;-85
2021/12/09 07:41:21;;;;;;;;;6.00;5.00;;;;;10.94;89.59;100242.34;5070020;28;45296;-85
2021/12/09 07:43:49;;;;;;;;;4.00;4.00;;;;;11.02;89.89;100242.59;5065196;28;46929;-85
2021/12/09 07:46:15;;;;;;;;;8.75;4.50;;;;;11.07;89.21;100243.94;5078176;28;45796;-85
2021/12/09 07:48:41;;;;;;;;;8.50;6.00;;;;;11.09;89.32;100241.19;5074391;28;45406;-86
2021/12/09 07:51:06;;;;;;;;;4.25;4.25;;;;;11.18;88.37;100245.75;5064211;28;45317;-85
2021/12/09 07:53:36;;;;;;;;;5.25;5.00;;;;;11.35;88.42;100239.97;5082490;28;45933;-85
2021/12/09 07:56:04;;;;;;;;;4.00;2.00;;;;;11.23;88.34;100241.78;5082325;28;45387;-86
2021/12/09 07:58:32;;;;;;;;;5.00;4.00;;;;;11.23;88.32;100246.22;5082767;27;45461;-85
2021/12/09 08:00:58;;;;;;;;;9.75;4.50;;;;;11.24;88.53;100243.47;5082712;28;45485;-85
2021/12/09 08:03:23;;;;;;;;;4.00;4.00;;;;;11.51;86.87;100243.09;5064097;28;47076;-85
2021/12/09 08:05:49;;;;;;;;;6.50;4.00;;;;;11.51;86.33;100242.25;5088835;28;45104;-85
2021/12/09 08:08:14;;;;;;;;;8.25;5.00;;;;;11.34;87.43;100240.09;5096758;28;45402;-85
2021/12/09 08:10:40;;;;;;;;;6.25;5.25;;;;;11.42;87.61;100254.38;5079733;28;45333;-85
2021/12/09 08:13:07;;;;;;;;;7.00;5.00;;;;;11.45;88.23;100259.44;5083605;28;47084;-85
2021/12/09 08:15:39;;;;;;;;;5.00;3.75;;;;;11.57;86.59;100247.03;5076553;28;44975;-85
2021/12/09 08:20:50;;;;;;;;;7.50;5.00;;;;;11.83;85.39;100260.88;5088630;28;45424;-85
2021/12/09 08:23:15;;;;;;;;;10.75;6.25;;;;;11.90;84.50;100265.56;5094549;28;45476;-85
2021/12/09 08:25:41;;;;;;;;;6.50;5.00;;;;;11.71;84.51;100256.53;5098963;28;45400;-85
2021/12/09 08:28:07;;;;;;;;;7.25;5.00;;;;;11.55;85.66;100256.91;5081939;28;44721;-85
2021/12/09 08:30:33;;;;;;;;;5.00;5.00;;;;;11.63;85.73;100251.84;5067349;28;45628;-86
2021/12/09 08:33:01;;;;;;;;;6.75;5.75;;;;;11.88;84.44;100248.94;5073195;28;48013;-85
2021/12/09 08:35:27;;;;;;;;;6.00;5.75;;;;;11.70;83.45;100246.91;5086226;28;45674;-85
2021/12/09 08:37:56;;;;;;;;;7.25;5.50;;;;;11.80;83.99;100248.72;5087357;28;45298;-85
2021/12/09 08:40:22;;;;;;;;;0.50;0.00;;;;;11.85;83.87;100243.91;5083122;28;45167;-85
2021/12/09 08:42:49;;;;;;;;;9.25;5.25;;;;;11.68;83.37;100243.53;5063817;28;46821;-86
2021/12/09 08:45:19;;;;;;;;;9.75;6.00;;;;;11.91;84.02;100245.22;5082695;28;45380;-85
2021/12/09 08:47:48;;;;;;;;;14.75;6.75;;;;;11.95;83.36;100258.06;5082757;28;45359;-86
2021/12/09 08:50:19;;;;;;;;;5.00;5.00;;;;;11.78;84.11;100245.34;5064914;28;45493;-85
2021/12/09 08:52:48;;;;;;;;;7.25;6.00;;;;;11.86;85.82;100258.81;5082115;28;46208;-86
2021/12/09 08:55:14;;;;;;;;;8.00;5.00;;;;;12.07;83.76;100260.69;5082358;28;45527;-86
2021/12/09 08:57:39;;;;;;;;;3.50;2.75;;;;;12.10;83.21;100257.81;5081946;28;45386;-86
2021/12/09 09:00:10;;;;;;;;;7.75;5.00;;;;;12.20;83.57;100283.38;5080674;28;45347;-86
2021/12/09 09:02:38;;;;;;;;;3.00;3.00;;;;;12.19;82.91;100283.53;5082012;28;45180;-86
2021/12/09 09:05:08;;;;;;;;;6.00;6.00;;;;;11.87;84.54;100281.66;5082056;28;45453;-86
2021/12/09 09:07:37;;;;;;;;;9.75;5.75;;;;;12.07;84.46;100292.44;5063399;28;45415;-86
2021/12/09 09:10:03;;;;;;;;;9.00;5.00;;;;;12.20;83.70;100295.78;5064167;28;45309;-85
2021/12/09 09:12:33;;;;;;;;;6.25;5.00;;;;;12.32;82.43;100292.97;5081519;28;47650;-86
2021/12/09 09:15:01;;;;;;;;;6.25;5.00;;;;;12.35;81.93;100297.19;5080644;27;48337;-86
2021/12/09 09:17:26;;;;;;;;;10.50;5.00;;;;;12.20;83.08;100309.03;5081283;28;45398;-85
2021/12/09 09:19:54;;;;;;;;;13.75;8.50;;;;;12.46;82.86;100305.09;5079997;28;45521;-86
2021/12/09 09:22:19;;;;;;;;;6.25;2.25;;;;;12.54;82.46;100302.66;5063571;28;47326;-85
2021/12/09 09:24:45;;;;;;;;;6.75;5.75;;;;;12.63;82.02;100312.47;5082371;28;45295;-86
2021/12/09 09:27:10;;;;;;;;;11.50;6.00;;;;;12.80;81.70;100304.94;5063461;28;45332;-86
2021/12/09 09:29:38;;;;;;;;;8.25;3.00;;;;;12.78;80.86;100310.34;5062840;28;45438;-86
2021/12/09 09:32:05;;;;;;;;;6.00;5.00;;;;;12.75;81.61;100298.19;5080318;28;46063;-86
2021/12/09 09:34:33;;;;;;;;;5.50;1.00;;;;;12.97;79.95;100310.50;5080739;28;45623;-86
2021/12/09 09:36:58;;;;;;;;;11.00;6.75;;;;;12.98;79.71;100314.00;5081542;28;45230;-86
2021/12/09 09:39:30;;;;;;;;;6.50;5.75;;;;;13.03;80.47;100302.00;5080950;28;45531;-86
2021/12/09 09:42:18;;;;;;;;;10.75;8.75;;;;;12.87;79.58;100311.38;5081101;28;46543;-86
2021/12/09 09:44:54;;;;;;;;;7.25;5.00;;;;;12.57;80.48;100326.22;5080829;28;45232;-86
2021/12/09 09:47:26;;;;;;;;;10.25;6.00;;;;;12.72;80.56;100327.63;5081392;28;45366;-85
2021/12/09 09:49:57;;;;;;;;;4.00;4.00;;;;;12.93;80.14;100330.25;5063058;28;45467;-86
2021/12/09 09:52:26;;;;;;;;;11.00;5.00;;;;;12.85;79.89;100334.53;5080956;28;46327;-86
2021/12/09 09:55:06;;;;;;;;;;;;;;;;;;;;;
2021/12/09 09:57:32;;;;;;;;;9.25;4.50;;;;;12.94;79.53;100325.81;5081472;28;67596;-86
2021/12/09 09:59:58;;;;;;;;;15.75;5.00;;;;;12.91;78.91;100326.09;5083266;28;45547;-86
2021/12/09 10:02:23;;;;;;;;;9.25;6.00;;;;;13.21;79.14;100330.63;5082591;28;45452;-86
2021/12/09 10:04:59;;;;;;;;;9.00;5.75;;;;;13.20;77.65;100337.72;5081246;28;45298;-86
2021/12/09 10:07:24;;;;;;;;;7.00;5.50;;;;;13.44;78.54;100333.00;5080999;28;45409;-86
2021/12/09 10:09:51;;;;;;;;;6.50;5.00;;;;;13.64;77.05;100333.09;5080673;28;45242;-86
2021/12/09 10:12:18;;;;;;;;;10.75;5.00;;;;;13.47;77.29;100326.59;5075071;28;47271;-86
2021/12/09 10:14:54;;;;;;;;;7.00;6.00;;;;;13.70;77.44;100319.28;5062148;28;45382;-86
2021/12/09 10:17:23;;;;;;;;;6.00;4.00;;;;;13.92;76.94;100313.78;5080823;28;45314;-86
2021/12/09 10:19:59;;;;;;;;;3.00;3.00;;;;;14.05;75.89;100311.72;5080495;28;45444;-86
2021/12/09 10:22:29;;;;;;;;;4.25;3.25;;;;;14.14;74.96;100308.25;5071043;28;45252;-87
2021/12/09 10:24:56;;;;;;;;;5.00;5.00;;;;;14.55;74.75;100306.38;5080294;28;45566;-86
2021/12/09 10:27:29;;;;;;;;;8.00;5.75;;;;;14.89;74.53;100306.78;5080686;28;45629;-87
2021/12/09 10:30:01;;;;;;;;;4.75;4.00;;;;;14.83;74.08;100288.72;5079214;28;46367;-87
2021/12/09 10:32:33;;;;;;;;;9.75;4.00;;;;;15.21;72.77;100287.78;5065556;28;47428;-87
2021/12/09 10:35:11;;;;;;;;;5.00;3.00;;;;;15.38;70.48;100283.56;5076821;28;45297;-87
2021/12/09 10:37:39;;;;;;;;;5.50;5.00;;;;;15.35;71.57;100296.16;5057552;28;45304;-87
2021/12/09 10:40:07;;;;;;;;;8.00;6.00;;;;;15.38;71.82;100292.38;5058596;28;45536;-87
2021/12/09 10:42:36;;;;;;;;;5.50;5.00;;;;;15.60;71.21;100292.03;5074154;28;47828;-87
2021/12/09 10:45:04;;;;;;;;;5.00;5.00;;;;;15.87;70.80;100283.22;5084140;28;45421;-88
2021/12/09 10:47:48;;;;;;;;;8.50;5.75;;;;;16.11;68.78;100274.69;5065417;28;45377;-88
2021/12/09 10:53:05;;;;;;;;;6.25;4.25;;;;;16.51;68.49;100268.06;5071397;28;45276;-88
2021/12/09 10:55:36;;;;;;;;;9.25;5.75;;;;;16.71;67.07;100261.59;5083258;28;45303;-88
2021/12/09 10:58:11;;;;;;;;;9.25;6.00;;;;;16.99;68.05;100265.81;5083420;27;45432;-88
2021/12/09 11:00:52;;;;;;;;;7.50;3.75;;;;;16.91;64.72;100265.75;5099482;27;45462;-88
2021/12/09 11:03:42;;;;;;;;;4.75;4.00;;;;;16.91;65.24;100265.75;5086306;28;46228;-88
2021/12/09 11:06:10;;;;;;;;;5.25;3.75;;;;;16.70;63.99;100263.44;5076311;28;45414;-88
2021/12/09 11:08:53;;;;;;;;;7.00;5.25;;;;;16.43;63.87;100256.34;5066760;28;45301;-88
2021/12/09 11:11:26;;;;;;;;;8.25;6.25;;;;;16.51;63.92;100266.22;5065826;28;45791;-88
2021/12/09 11:13:58;;;;;;;;;70.00;49.50;;;;;16.46;63.75;100261.38;5082861;28;45452;-88
2021/12/09 11:16:31;;;;;;;;;19.75;13.75;;;;;16.73;64.88;100254.28;5099040;27;45600;-88
2021/12/09 11:19:08;;;;;;;;;11.00;10.00;;;;;17.09;63.94;100261.22;5083153;28;45318;-88
2021/12/09 11:21:39;;;;;;;;;11.25;7.00;;;;;17.19;63.16;100247.78;5082932;28;45538;-88
2021/12/09 11:24:10;;;;;;;;;8.25;8.25;;;;;17.33;62.83;100246.31;5083404;28;45364;-88
2021/12/09 11:26:47;;;;;;;;;7.00;7.00;;;;;17.39;62.56;100243.03;5082846;28;45648;-88
2021/12/09 11:29:17;;;;;;;;;5.75;4.00;;;;;17.33;61.29;100232.97;5061706;28;45337;-88
2021/12/09 11:32:00;;;;;;;;;7.25;4.50;;;;;17.45;62.10;100231.72;5070182;28;45232;-89
2021/12/09 11:34:32;;;;;;;;;11.50;5.75;;;;;17.50;61.78;100232.06;5083055;28;46241;-88
2021/12/09 11:37:05;;;;;;;;;13.50;6.75;;;;;17.55;61.79;100227.94;5086134;28;45441;-88